sensor_id;sensor_type;location;lat;lon;timestamp;P1;durP1;ratioP1;P2;durP2;ratioP2
7471;SDS011;3777;48.722;8.110;2023-07-20T00:01:51;4.90;;;3.13;;
7471;SDS011;3777;48.722;8.110;2023-07-20T00:04:18;4.83;;;3.80;;
7471;SDS011;3777;48.722;8.110;2023-07-20T00:06:45;5.10;;;3.20;;
7471;SDS011;3777;48.722;8.110;2023-07-20T00:09:12;3.50;;;3.10;;
7471;SDS011;3777;48.722;8.110;2023-07-20T00:11:39;5.67;;;3.53;;
7471;SDS011;3777;48.722;8.110;2023-07-20T00:14:07;3.73;;;3.20;;
7471;SDS011;3777;48.722;8.110;2023-07-20T00:16:34;5.43;;;3.30;;
7471;SDS011;3777;48.722;8.110;2023-07-20T00:19:01;4.47;;;3.40;;
7471;SDS011;3777;48.722;8.110;2023-07-20T00:21:28;4.70;;;3.60;;
7471;SDS011;3777;48.722;8.110;2023-07-20T00:23:55;3.90;;;3.50;;
7471;SDS011;3777;48.722;8.110;2023-07-20T00:26:22;9.47;;;3.60;;
7471;SDS011;3777;48.722;8.110;2023-07-20T00:28:49;3.80;;;3.40;;
7471;SDS011;3777;48.722;8.110;2023-07-20T00:31:18;3.40;;;3.10;;
7471;SDS011;3777;48.722;8.110;2023-07-20T00:33:45;3.57;;;3.10;;
7471;SDS011;3777;48.722;8.110;2023-07-20T00:36:12;4.80;;;3.67;;
7471;SDS011;3777;48.722;8.110;2023-07-20T00:38:39;5.10;;;3.50;;
7471;SDS011;3777;48.722;8.110;2023-07-20T00:41:06;4.60;;;3.30;;
7471;SDS011;3777;48.722;8.110;2023-07-20T00:43:33;5.20;;;3.30;;
7471;SDS011;3777;48.722;8.110;2023-07-20T00:46:00;4.30;;;3.30;;
7471;SDS011;3777;48.722;8.110;2023-07-20T00:48:30;3.83;;;3.13;;
7471;SDS011;3777;48.722;8.110;2023-07-20T00:50:58;4.70;;;3.73;;
7471;SDS011;3777;48.722;8.110;2023-07-20T00:53:26;4.67;;;3.57;;
7471;SDS011;3777;48.722;8.110;2023-07-20T00:55:53;4.97;;;3.67;;
7471;SDS011;3777;48.722;8.110;2023-07-20T00:58:20;6.00;;;3.57;;
7471;SDS011;3777;48.722;8.110;2023-07-20T01:00:48;4.93;;;3.60;;
7471;SDS011;3777;48.722;8.110;2023-07-20T01:03:15;4.13;;;3.13;;
7471;SDS011;3777;48.722;8.110;2023-07-20T01:05:45;4.80;;;3.57;;
7471;SDS011;3777;48.722;8.110;2023-07-20T01:08:17;3.83;;;3.30;;
7471;SDS011;3777;48.722;8.110;2023-07-20T01:10:56;5.00;;;3.53;;
7471;SDS011;3777;48.722;8.110;2023-07-20T01:13:26;3.77;;;3.37;;
7471;SDS011;3777;48.722;8.110;2023-07-20T01:15:56;4.93;;;3.40;;
7471;SDS011;3777;48.722;8.110;2023-07-20T01:18:24;5.17;;;3.50;;
7471;SDS011;3777;48.722;8.110;2023-07-20T01:20:57;5.47;;;3.70;;
7471;SDS011;3777;48.722;8.110;2023-07-20T01:23:32;4.03;;;3.63;;
7471;SDS011;3777;48.722;8.110;2023-07-20T01:26:27;3.63;;;3.33;;
7471;SDS011;3777;48.722;8.110;2023-07-20T01:29:11;3.83;;;3.43;;
7471;SDS011;3777;48.722;8.110;2023-07-20T01:31:55;5.03;;;3.70;;
7471;SDS011;3777;48.722;8.110;2023-07-20T01:34:23;4.87;;;3.90;;
7471;SDS011;3777;48.722;8.110;2023-07-20T01:36:52;4.83;;;3.60;;
7471;SDS011;3777;48.722;8.110;2023-07-20T01:39:20;4.73;;;3.53;;
7471;SDS011;3777;48.722;8.110;2023-07-20T01:41:48;5.77;;;3.73;;
7471;SDS011;3777;48.722;8.110;2023-07-20T01:44:15;4.43;;;3.83;;
7471;SDS011;3777;48.722;8.110;2023-07-20T01:46:42;6.47;;;3.90;;
7471;SDS011;3777;48.722;8.110;2023-07-20T01:49:10;5.23;;;3.90;;
7471;SDS011;3777;48.722;8.110;2023-07-20T01:51:37;5.83;;;3.80;;
7471;SDS011;3777;48.722;8.110;2023-07-20T01:54:04;4.10;;;3.70;;
7471;SDS011;3777;48.722;8.110;2023-07-20T01:56:31;4.27;;;3.77;;
7471;SDS011;3777;48.722;8.110;2023-07-20T01:58:58;6.63;;;3.80;;
7471;SDS011;3777;48.722;8.110;2023-07-20T02:01:25;5.63;;;3.93;;
7471;SDS011;3777;48.722;8.110;2023-07-20T02:03:53;6.13;;;4.20;;
7471;SDS011;3777;48.722;8.110;2023-07-20T02:06:22;5.90;;;4.07;;
7471;SDS011;3777;48.722;8.110;2023-07-20T02:08:49;4.60;;;4.10;;
7471;SDS011;3777;48.722;8.110;2023-07-20T02:11:16;5.57;;;3.90;;
7471;SDS011;3777;48.722;8.110;2023-07-20T02:13:43;6.77;;;4.03;;
7471;SDS011;3777;48.722;8.110;2023-07-20T02:16:10;5.27;;;3.80;;
7471;SDS011;3777;48.722;8.110;2023-07-20T02:18:37;4.13;;;3.73;;
7471;SDS011;3777;48.722;8.110;2023-07-20T02:21:04;5.27;;;4.00;;
7471;SDS011;3777;48.722;8.110;2023-07-20T02:23:32;5.33;;;4.03;;
7471;SDS011;3777;48.722;8.110;2023-07-20T02:25:59;6.13;;;4.00;;
7471;SDS011;3777;48.722;8.110;2023-07-20T02:28:26;4.37;;;3.97;;
7471;SDS011;3777;48.722;8.110;2023-07-20T02:30:54;8.80;;;3.93;;
7471;SDS011;3777;48.722;8.110;2023-07-20T02:33:21;5.53;;;4.10;;
7471;SDS011;3777;48.722;8.110;2023-07-20T02:35:48;6.43;;;4.20;;
7471;SDS011;3777;48.722;8.110;2023-07-20T02:38:15;5.73;;;4.20;;
7471;SDS011;3777;48.722;8.110;2023-07-20T02:40:43;6.67;;;4.60;;
7471;SDS011;3777;48.722;8.110;2023-07-20T02:43:10;4.97;;;3.80;;
7471;SDS011;3777;48.722;8.110;2023-07-20T02:45:39;5.90;;;3.70;;
7471;SDS011;3777;48.722;8.110;2023-07-20T02:48:06;5.70;;;3.77;;
7471;SDS011;3777;48.722;8.110;2023-07-20T02:50:33;5.30;;;4.10;;
7471;SDS011;3777;48.722;8.110;2023-07-20T02:53:00;5.43;;;4.10;;
7471;SDS011;3777;48.722;8.110;2023-07-20T02:55:27;5.47;;;4.03;;
7471;SDS011;3777;48.722;8.110;2023-07-20T02:57:56;5.00;;;4.20;;
7471;SDS011;3777;48.722;8.110;2023-07-20T03:00:23;6.20;;;3.77;;
7471;SDS011;3777;48.722;8.110;2023-07-20T03:02:50;6.00;;;3.90;;
7471;SDS011;3777;48.722;8.110;2023-07-20T03:05:20;4.90;;;3.97;;
7471;SDS011;3777;48.722;8.110;2023-07-20T03:07:47;7.13;;;4.00;;
7471;SDS011;3777;48.722;8.110;2023-07-20T03:10:15;4.50;;;3.90;;
7471;SDS011;3777;48.722;8.110;2023-07-20T03:12:42;6.13;;;4.00;;
7471;SDS011;3777;48.722;8.110;2023-07-20T03:15:11;7.23;;;3.90;;
7471;SDS011;3777;48.722;8.110;2023-07-20T03:17:38;6.47;;;4.13;;
7471;SDS011;3777;48.722;8.110;2023-07-20T03:20:05;3.93;;;3.53;;
7471;SDS011;3777;48.722;8.110;2023-07-20T03:22:35;4.50;;;3.50;;
7471;SDS011;3777;48.722;8.110;2023-07-20T03:25:02;4.97;;;3.43;;
7471;SDS011;3777;48.722;8.110;2023-07-20T03:27:30;7.30;;;3.90;;
7471;SDS011;3777;48.722;8.110;2023-07-20T03:29:57;4.43;;;3.70;;
7471;SDS011;3777;48.722;8.110;2023-07-20T03:32:25;7.33;;;4.17;;
7471;SDS011;3777;48.722;8.110;2023-07-20T03:34:52;6.03;;;3.93;;
7471;SDS011;3777;48.722;8.110;2023-07-20T03:37:19;4.63;;;3.80;;
7471;SDS011;3777;48.722;8.110;2023-07-20T03:39:46;5.07;;;3.97;;
7471;SDS011;3777;48.722;8.110;2023-07-20T03:42:14;4.63;;;3.93;;
7471;SDS011;3777;48.722;8.110;2023-07-20T03:44:40;7.50;;;4.00;;
7471;SDS011;3777;48.722;8.110;2023-07-20T03:47:07;6.30;;;4.20;;
7471;SDS011;3777;48.722;8.110;2023-07-20T03:49:36;6.80;;;3.83;;
7471;SDS011;3777;48.722;8.110;2023-07-20T03:52:03;4.37;;;3.57;;
7471;SDS011;3777;48.722;8.110;2023-07-20T03:54:30;5.03;;;3.73;;
7471;SDS011;3777;48.722;8.110;2023-07-20T03:56:57;4.07;;;3.67;;
7471;SDS011;3777;48.722;8.110;2023-07-20T03:59:25;4.93;;;3.90;;
7471;SDS011;3777;48.722;8.110;2023-07-20T04:01:53;6.33;;;3.90;;
7471;SDS011;3777;48.722;8.110;2023-07-20T04:04:20;6.50;;;4.10;;
7471;SDS011;3777;48.722;8.110;2023-07-20T04:06:48;6.63;;;3.87;;
7471;SDS011;3777;48.722;8.110;2023-07-20T04:09:15;7.10;;;4.15;;
7471;SDS011;3777;48.722;8.110;2023-07-20T04:11:42;5.43;;;4.23;;
7471;SDS011;3777;48.722;8.110;2023-07-20T04:14:09;4.57;;;3.90;;
7471;SDS011;3777;48.722;8.110;2023-07-20T04:16:36;5.63;;;3.85;;
7471;SDS011;3777;48.722;8.110;2023-07-20T04:19:03;6.73;;;4.10;;
7471;SDS011;3777;48.722;8.110;2023-07-20T04:21:30;5.93;;;4.20;;
7471;SDS011;3777;48.722;8.110;2023-07-20T04:23:58;4.20;;;3.80;;
7471;SDS011;3777;48.722;8.110;2023-07-20T04:26:26;5.97;;;4.20;;
7471;SDS011;3777;48.722;8.110;2023-07-20T04:28:53;4.73;;;3.77;;
7471;SDS011;3777;48.722;8.110;2023-07-20T04:31:20;5.13;;;4.07;;
7471;SDS011;3777;48.722;8.110;2023-07-20T04:33:47;4.23;;;3.60;;
7471;SDS011;3777;48.722;8.110;2023-07-20T04:36:14;4.97;;;3.90;;
7471;SDS011;3777;48.722;8.110;2023-07-20T04:38:44;4.00;;;3.53;;
7471;SDS011;3777;48.722;8.110;2023-07-20T04:41:12;7.00;;;3.67;;
7471;SDS011;3777;48.722;8.110;2023-07-20T04:43:41;5.00;;;3.90;;
7471;SDS011;3777;48.722;8.110;2023-07-20T04:46:08;6.00;;;3.87;;
7471;SDS011;3777;48.722;8.110;2023-07-20T04:48:35;4.87;;;3.77;;
7471;SDS011;3777;48.722;8.110;2023-07-20T04:51:03;4.67;;;3.60;;
7471;SDS011;3777;48.722;8.110;2023-07-20T04:53:30;4.93;;;4.00;;
7471;SDS011;3777;48.722;8.110;2023-07-20T04:55:57;4.10;;;3.63;;
7471;SDS011;3777;48.722;8.110;2023-07-20T04:58:25;4.50;;;3.70;;
7471;SDS011;3777;48.722;8.110;2023-07-20T05:00:52;5.63;;;4.13;;
7471;SDS011;3777;48.722;8.110;2023-07-20T05:03:19;4.10;;;3.50;;
7471;SDS011;3777;48.722;8.110;2023-07-20T05:05:47;5.17;;;3.67;;
7471;SDS011;3777;48.722;8.110;2023-07-20T05:08:14;5.33;;;3.50;;
7471;SDS011;3777;48.722;8.110;2023-07-20T05:10:41;5.37;;;3.60;;
7471;SDS011;3777;48.722;8.110;2023-07-20T05:13:08;9.50;;;3.77;;
7471;SDS011;3777;48.722;8.110;2023-07-20T05:15:36;4.50;;;3.70;;
7471;SDS011;3777;48.722;8.110;2023-07-20T05:18:03;4.80;;;3.80;;
7471;SDS011;3777;48.722;8.110;2023-07-20T05:20:30;6.63;;;4.00;;
7471;SDS011;3777;48.722;8.110;2023-07-20T05:23:02;4.80;;;3.80;;
7471;SDS011;3777;48.722;8.110;2023-07-20T05:25:29;4.97;;;4.07;;
7471;SDS011;3777;48.722;8.110;2023-07-20T05:27:56;4.93;;;3.83;;
7471;SDS011;3777;48.722;8.110;2023-07-20T05:30:23;5.43;;;4.30;;
7471;SDS011;3777;48.722;8.110;2023-07-20T05:32:51;5.70;;;4.13;;
7471;SDS011;3777;48.722;8.110;2023-07-20T05:35:19;4.53;;;4.10;;
7471;SDS011;3777;48.722;8.110;2023-07-20T05:37:47;5.83;;;4.33;;
7471;SDS011;3777;48.722;8.110;2023-07-20T05:40:14;5.97;;;4.20;;
7471;SDS011;3777;48.722;8.110;2023-07-20T05:42:44;4.57;;;3.47;;
7471;SDS011;3777;48.722;8.110;2023-07-20T05:45:11;6.33;;;3.60;;
7471;SDS011;3777;48.722;8.110;2023-07-20T05:47:38;5.00;;;3.22;;
7471;SDS011;3777;48.722;8.110;2023-07-20T05:50:07;7.32;;;3.75;;
7471;SDS011;3777;48.722;8.110;2023-07-20T05:52:35;4.03;;;3.35;;
7471;SDS011;3777;48.722;8.110;2023-07-20T05:55:04;4.78;;;3.53;;
7471;SDS011;3777;48.722;8.110;2023-07-20T05:57:32;5.75;;;2.97;;
7471;SDS011;3777;48.722;8.110;2023-07-20T05:59:59;5.05;;;3.10;;
7471;SDS011;3777;48.722;8.110;2023-07-20T06:02:26;5.00;;;3.20;;
7471;SDS011;3777;48.722;8.110;2023-07-20T06:04:52;5.55;;;3.10;;
7471;SDS011;3777;48.722;8.110;2023-07-20T06:07:21;4.53;;;3.30;;
7471;SDS011;3777;48.722;8.110;2023-07-20T06:09:48;4.25;;;3.42;;
7471;SDS011;3777;48.722;8.110;2023-07-20T06:12:15;8.57;;;3.55;;
7471;SDS011;3777;48.722;8.110;2023-07-20T06:14:41;6.88;;;3.83;;
7471;SDS011;3777;48.722;8.110;2023-07-20T06:17:08;7.72;;;3.40;;
7471;SDS011;3777;48.722;8.110;2023-07-20T06:19:35;5.43;;;3.28;;
7471;SDS011;3777;48.722;8.110;2023-07-20T06:22:03;4.80;;;3.05;;
7471;SDS011;3777;48.722;8.110;2023-07-20T06:24:31;5.22;;;3.03;;
7471;SDS011;3777;48.722;8.110;2023-07-20T06:26:59;6.05;;;3.13;;
7471;SDS011;3777;48.722;8.110;2023-07-20T06:29:26;4.47;;;3.10;;
7471;SDS011;3777;48.722;8.110;2023-07-20T06:31:53;5.72;;;3.25;;
7471;SDS011;3777;48.722;8.110;2023-07-20T06:34:20;5.03;;;2.90;;
7471;SDS011;3777;48.722;8.110;2023-07-20T06:36:47;4.32;;;3.10;;
7471;SDS011;3777;48.722;8.110;2023-07-20T06:39:14;4.70;;;3.17;;
7471;SDS011;3777;48.722;8.110;2023-07-20T06:41:42;5.20;;;3.30;;
7471;SDS011;3777;48.722;8.110;2023-07-20T06:44:09;4.78;;;3.50;;
7471;SDS011;3777;48.722;8.110;2023-07-20T06:46:36;3.70;;;3.25;;
7471;SDS011;3777;48.722;8.110;2023-07-20T06:49:05;5.47;;;3.30;;
7471;SDS011;3777;48.722;8.110;2023-07-20T06:51:33;7.63;;;3.20;;
7471;SDS011;3777;48.722;8.110;2023-07-20T06:54:00;4.75;;;3.03;;
7471;SDS011;3777;48.722;8.110;2023-07-20T06:56:29;7.30;;;3.50;;
7471;SDS011;3777;48.722;8.110;2023-07-20T06:58:58;6.25;;;3.13;;
7471;SDS011;3777;48.722;8.110;2023-07-20T07:01:25;4.78;;;3.15;;
7471;SDS011;3777;48.722;8.110;2023-07-20T07:03:52;6.38;;;2.95;;
7471;SDS011;3777;48.722;8.110;2023-07-20T07:06:18;3.92;;;2.90;;
7471;SDS011;3777;48.722;8.110;2023-07-20T07:08:46;4.28;;;3.20;;
7471;SDS011;3777;48.722;8.110;2023-07-20T07:11:13;5.25;;;3.30;;
7471;SDS011;3777;48.722;8.110;2023-07-20T07:13:40;5.40;;;3.15;;
7471;SDS011;3777;48.722;8.110;2023-07-20T07:16:08;5.00;;;2.97;;
7471;SDS011;3777;48.722;8.110;2023-07-20T07:18:35;3.53;;;2.95;;
7471;SDS011;3777;48.722;8.110;2023-07-20T07:21:02;4.10;;;3.08;;
7471;SDS011;3777;48.722;8.110;2023-07-20T07:23:29;6.60;;;3.00;;
7471;SDS011;3777;48.722;8.110;2023-07-20T07:25:56;4.38;;;2.72;;
7471;SDS011;3777;48.722;8.110;2023-07-20T07:28:23;4.38;;;3.00;;
7471;SDS011;3777;48.722;8.110;2023-07-20T07:30:50;4.53;;;2.90;;
7471;SDS011;3777;48.722;8.110;2023-07-20T07:33:18;4.53;;;2.80;;
7471;SDS011;3777;48.722;8.110;2023-07-20T07:35:45;3.75;;;2.85;;
7471;SDS011;3777;48.722;8.110;2023-07-20T07:38:12;4.45;;;2.60;;
7471;SDS011;3777;48.722;8.110;2023-07-20T07:40:39;4.35;;;2.60;;
7471;SDS011;3777;48.722;8.110;2023-07-20T07:43:07;2.80;;;2.47;;
7471;SDS011;3777;48.722;8.110;2023-07-20T07:45:34;4.88;;;2.70;;
7471;SDS011;3777;48.722;8.110;2023-07-20T07:48:02;3.85;;;2.60;;
7471;SDS011;3777;48.722;8.110;2023-07-20T07:50:31;2.80;;;2.22;;
7471;SDS011;3777;48.722;8.110;2023-07-20T07:52:59;5.00;;;2.20;;
7471;SDS011;3777;48.722;8.110;2023-07-20T07:55:26;4.78;;;2.20;;
7471;SDS011;3777;48.722;8.110;2023-07-20T07:57:53;4.18;;;2.00;;
7471;SDS011;3777;48.722;8.110;2023-07-20T08:00:20;6.85;;;2.65;;
7471;SDS011;3777;48.722;8.110;2023-07-20T08:02:47;3.05;;;2.25;;
7471;SDS011;3777;48.722;8.110;2023-07-20T08:05:16;4.80;;;2.20;;
7471;SDS011;3777;48.722;8.110;2023-07-20T08:07:45;3.63;;;2.08;;
7471;SDS011;3777;48.722;8.110;2023-07-20T08:10:12;3.17;;;2.10;;
7471;SDS011;3777;48.722;8.110;2023-07-20T08:12:39;5.30;;;2.17;;
7471;SDS011;3777;48.722;8.110;2023-07-20T08:15:06;3.72;;;2.20;;
7471;SDS011;3777;48.722;8.110;2023-07-20T08:17:33;4.63;;;2.10;;
7471;SDS011;3777;48.722;8.110;2023-07-20T08:20:00;3.85;;;2.13;;
7471;SDS011;3777;48.722;8.110;2023-07-20T08:22:27;3.47;;;2.30;;
7471;SDS011;3777;48.722;8.110;2023-07-20T08:24:56;4.40;;;2.33;;
7471;SDS011;3777;48.722;8.110;2023-07-20T08:27:23;4.82;;;2.20;;
7471;SDS011;3777;48.722;8.110;2023-07-20T08:29:51;5.57;;;2.00;;
7471;SDS011;3777;48.722;8.110;2023-07-20T08:32:17;4.30;;;1.95;;
7471;SDS011;3777;48.722;8.110;2023-07-20T08:34:44;3.50;;;2.05;;
7471;SDS011;3777;48.722;8.110;2023-07-20T08:37:11;4.43;;;2.30;;
7471;SDS011;3777;48.722;8.110;2023-07-20T08:39:38;3.22;;;1.80;;
7471;SDS011;3777;48.722;8.110;2023-07-20T08:42:07;5.57;;;2.17;;
7471;SDS011;3777;48.722;8.110;2023-07-20T08:44:35;3.63;;;1.90;;
7471;SDS011;3777;48.722;8.110;2023-07-20T08:47:04;2.92;;;1.85;;
7471;SDS011;3777;48.722;8.110;2023-07-20T08:49:33;2.67;;;1.77;;
7471;SDS011;3777;48.722;8.110;2023-07-20T08:52:00;4.43;;;2.10;;
7471;SDS011;3777;48.722;8.110;2023-07-20T08:54:29;3.13;;;1.60;;
7471;SDS011;3777;48.722;8.110;2023-07-20T08:56:59;3.58;;;1.90;;
7471;SDS011;3777;48.722;8.110;2023-07-20T08:59:30;2.58;;;1.73;;
7471;SDS011;3777;48.722;8.110;2023-07-20T09:01:58;4.35;;;1.80;;
7471;SDS011;3777;48.722;8.110;2023-07-20T09:04:26;2.72;;;1.60;;
7471;SDS011;3777;48.722;8.110;2023-07-20T09:06:53;2.53;;;1.60;;
7471;SDS011;3777;48.722;8.110;2023-07-20T09:09:21;3.10;;;1.70;;
7471;SDS011;3777;48.722;8.110;2023-07-20T09:11:48;3.22;;;1.98;;
7471;SDS011;3777;48.722;8.110;2023-07-20T09:14:15;3.33;;;1.70;;
7471;SDS011;3777;48.722;8.110;2023-07-20T09:16:52;2.63;;;1.60;;
7471;SDS011;3777;48.722;8.110;2023-07-20T09:19:20;2.33;;;1.75;;
7471;SDS011;3777;48.722;8.110;2023-07-20T09:21:48;3.42;;;1.83;;
7471;SDS011;3777;48.722;8.110;2023-07-20T09:24:17;2.05;;;1.70;;
7471;SDS011;3777;48.722;8.110;2023-07-20T09:26:45;3.03;;;1.65;;
7471;SDS011;3777;48.722;8.110;2023-07-20T09:29:14;2.13;;;1.60;;
7471;SDS011;3777;48.722;8.110;2023-07-20T09:31:43;2.05;;;1.63;;
7471;SDS011;3777;48.722;8.110;2023-07-20T09:34:27;2.97;;;1.73;;
7471;SDS011;3777;48.722;8.110;2023-07-20T09:36:55;2.88;;;1.60;;
7471;SDS011;3777;48.722;8.110;2023-07-20T09:39:22;2.75;;;1.67;;
7471;SDS011;3777;48.722;8.110;2023-07-20T09:41:50;2.22;;;1.70;;
7471;SDS011;3777;48.722;8.110;2023-07-20T09:44:17;3.47;;;2.10;;
7471;SDS011;3777;48.722;8.110;2023-07-20T09:46:46;3.10;;;1.73;;
7471;SDS011;3777;48.722;8.110;2023-07-20T09:49:15;3.60;;;1.75;;
7471;SDS011;3777;48.722;8.110;2023-07-20T09:51:44;2.13;;;1.50;;
7471;SDS011;3777;48.722;8.110;2023-07-20T09:54:12;3.72;;;1.70;;
7471;SDS011;3777;48.722;8.110;2023-07-20T09:56:40;2.47;;;1.70;;
7471;SDS011;3777;48.722;8.110;2023-07-20T09:59:08;3.95;;;1.60;;
7471;SDS011;3777;48.722;8.110;2023-07-20T10:01:35;2.90;;;1.60;;
7471;SDS011;3777;48.722;8.110;2023-07-20T10:04:03;2.38;;;1.60;;
7471;SDS011;3777;48.722;8.110;2023-07-20T10:06:34;3.40;;;1.50;;
7471;SDS011;3777;48.722;8.110;2023-07-20T10:09:05;2.13;;;1.40;;
7471;SDS011;3777;48.722;8.110;2023-07-20T10:11:35;2.42;;;1.55;;
7471;SDS011;3777;48.722;8.110;2023-07-20T10:14:03;1.88;;;1.52;;
7471;SDS011;3777;48.722;8.110;2023-07-20T10:16:32;3.28;;;1.67;;
7471;SDS011;3777;48.722;8.110;2023-07-20T10:19:03;1.80;;;1.60;;
7471;SDS011;3777;48.722;8.110;2023-07-20T10:21:35;4.80;;;1.85;;
7471;SDS011;3777;48.722;8.110;2023-07-20T10:24:09;2.70;;;1.65;;
7471;SDS011;3777;48.722;8.110;2023-07-20T10:26:37;1.83;;;1.52;;
7471;SDS011;3777;48.722;8.110;2023-07-20T10:29:05;1.95;;;1.50;;
7471;SDS011;3777;48.722;8.110;2023-07-20T10:31:32;1.58;;;1.35;;
7471;SDS011;3777;48.722;8.110;2023-07-20T10:34:00;1.67;;;1.42;;
7471;SDS011;3777;48.722;8.110;2023-07-20T10:36:28;2.20;;;1.50;;
7471;SDS011;3777;48.722;8.110;2023-07-20T10:38:56;2.40;;;1.58;;
7471;SDS011;3777;48.722;8.110;2023-07-20T10:41:27;2.40;;;1.50;;
7471;SDS011;3777;48.722;8.110;2023-07-20T10:43:57;2.58;;;1.48;;
7471;SDS011;3777;48.722;8.110;2023-07-20T10:46:42;2.95;;;1.50;;
7471;SDS011;3777;48.722;8.110;2023-07-20T10:49:10;2.08;;;1.60;;
7471;SDS011;3777;48.722;8.110;2023-07-20T10:51:39;2.65;;;1.60;;
7471;SDS011;3777;48.722;8.110;2023-07-20T10:54:09;1.60;;;1.30;;
7471;SDS011;3777;48.722;8.110;2023-07-20T10:57:20;3.03;;;1.52;;
7471;SDS011;3777;48.722;8.110;2023-07-20T10:59:48;1.90;;;1.40;;
7471;SDS011;3777;48.722;8.110;2023-07-20T11:02:17;1.80;;;1.30;;
7471;SDS011;3777;48.722;8.110;2023-07-20T11:04:46;1.52;;;1.40;;
7471;SDS011;3777;48.722;8.110;2023-07-20T11:07:17;1.77;;;1.50;;
7471;SDS011;3777;48.722;8.110;2023-07-20T11:10:13;3.35;;;1.50;;
7471;SDS011;3777;48.722;8.110;2023-07-20T11:12:41;2.45;;;1.55;;
7471;SDS011;3777;48.722;8.110;2023-07-20T11:15:31;1.85;;;1.58;;
7471;SDS011;3777;48.722;8.110;2023-07-20T11:18:11;2.30;;;1.52;;
7471;SDS011;3777;48.722;8.110;2023-07-20T11:20:39;1.50;;;1.40;;
7471;SDS011;3777;48.722;8.110;2023-07-20T11:23:06;2.17;;;1.60;;
7471;SDS011;3777;48.722;8.110;2023-07-20T11:25:39;2.20;;;1.80;;
7471;SDS011;3777;48.722;8.110;2023-07-20T11:28:06;3.47;;;1.90;;
7471;SDS011;3777;48.722;8.110;2023-07-20T11:30:36;4.25;;;1.60;;
7471;SDS011;3777;48.722;8.110;2023-07-20T11:33:04;2.00;;;1.60;;
7471;SDS011;3777;48.722;8.110;2023-07-20T11:35:34;2.42;;;1.73;;
7471;SDS011;3777;48.722;8.110;2023-07-20T11:38:02;2.85;;;1.65;;
7471;SDS011;3777;48.722;8.110;2023-07-20T11:40:30;2.55;;;1.52;;
7471;SDS011;3777;48.722;8.110;2023-07-20T11:42:58;2.13;;;1.60;;
7471;SDS011;3777;48.722;8.110;2023-07-20T11:45:25;2.70;;;1.63;;
7471;SDS011;3777;48.722;8.110;2023-07-20T11:47:58;2.47;;;1.40;;
7471;SDS011;3777;48.722;8.110;2023-07-20T11:50:25;1.70;;;1.60;;
7471;SDS011;3777;48.722;8.110;2023-07-20T11:52:52;6.32;;;1.80;;
7471;SDS011;3777;48.722;8.110;2023-07-20T11:55:19;1.58;;;1.45;;
7471;SDS011;3777;48.722;8.110;2023-07-20T11:58:01;4.30;;;1.55;;
7471;SDS011;3777;48.722;8.110;2023-07-20T12:00:29;2.40;;;1.50;;
7471;SDS011;3777;48.722;8.110;2023-07-20T12:02:56;3.90;;;1.50;;
7471;SDS011;3777;48.722;8.110;2023-07-20T12:05:23;2.53;;;1.67;;
7471;SDS011;3777;48.722;8.110;2023-07-20T12:07:51;1.90;;;1.60;;
7471;SDS011;3777;48.722;8.110;2023-07-20T12:10:23;2.53;;;1.67;;
7471;SDS011;3777;48.722;8.110;2023-07-20T12:12:51;2.88;;;1.73;;
7471;SDS011;3777;48.722;8.110;2023-07-20T12:15:21;3.60;;;1.55;;
7471;SDS011;3777;48.722;8.110;2023-07-20T12:17:52;2.20;;;1.50;;
7471;SDS011;3777;48.722;8.110;2023-07-20T12:20:26;2.72;;;1.70;;
7471;SDS011;3777;48.722;8.110;2023-07-20T12:22:55;2.28;;;1.60;;
7471;SDS011;3777;48.722;8.110;2023-07-20T12:25:31;1.90;;;1.50;;
7471;SDS011;3777;48.722;8.110;2023-07-20T12:28:00;2.65;;;1.60;;
7471;SDS011;3777;48.722;8.110;2023-07-20T12:30:30;2.30;;;1.60;;
7471;SDS011;3777;48.722;8.110;2023-07-20T12:32:57;2.10;;;1.50;;
7471;SDS011;3777;48.722;8.110;2023-07-20T12:35:23;2.88;;;1.70;;
7471;SDS011;3777;48.722;8.110;2023-07-20T12:37:51;1.80;;;1.70;;
7471;SDS011;3777;48.722;8.110;2023-07-20T12:40:18;1.58;;;1.48;;
7471;SDS011;3777;48.722;8.110;2023-07-20T12:42:46;2.30;;;1.52;;
7471;SDS011;3777;48.722;8.110;2023-07-20T12:45:13;1.95;;;1.50;;
7471;SDS011;3777;48.722;8.110;2023-07-20T12:47:41;2.78;;;1.70;;
7471;SDS011;3777;48.722;8.110;2023-07-20T12:50:09;2.35;;;1.48;;
7471;SDS011;3777;48.722;8.110;2023-07-20T12:52:36;2.08;;;1.50;;
7471;SDS011;3777;48.722;8.110;2023-07-20T12:55:04;2.40;;;1.75;;
7471;SDS011;3777;48.722;8.110;2023-07-20T12:57:32;2.00;;;1.60;;
7471;SDS011;3777;48.722;8.110;2023-07-20T12:59:59;2.15;;;1.80;;
7471;SDS011;3777;48.722;8.110;2023-07-20T13:02:28;2.78;;;1.70;;
7471;SDS011;3777;48.722;8.110;2023-07-20T13:04:57;2.10;;;1.67;;
7471;SDS011;3777;48.722;8.110;2023-07-20T13:07:33;2.72;;;1.80;;
7471;SDS011;3777;48.722;8.110;2023-07-20T13:10:01;2.15;;;1.70;;
7471;SDS011;3777;48.722;8.110;2023-07-20T13:12:29;2.40;;;1.75;;
7471;SDS011;3777;48.722;8.110;2023-07-20T13:14:58;1.42;;;1.30;;
7471;SDS011;3777;48.722;8.110;2023-07-20T13:17:25;2.70;;;1.48;;
7471;SDS011;3777;48.722;8.110;2023-07-20T13:19:53;2.05;;;1.63;;
7471;SDS011;3777;48.722;8.110;2023-07-20T13:22:21;2.17;;;1.85;;
7471;SDS011;3777;48.722;8.110;2023-07-20T13:24:49;2.55;;;1.90;;
7471;SDS011;3777;48.722;8.110;2023-07-20T13:27:16;2.10;;;1.77;;
7471;SDS011;3777;48.722;8.110;2023-07-20T13:29:43;2.22;;;1.60;;
7471;SDS011;3777;48.722;8.110;2023-07-20T13:32:12;4.45;;;1.90;;
7471;SDS011;3777;48.722;8.110;2023-07-20T13:34:39;1.95;;;1.60;;
7471;SDS011;3777;48.722;8.110;2023-07-20T13:37:06;1.77;;;1.65;;
7471;SDS011;3777;48.722;8.110;2023-07-20T13:39:35;2.97;;;1.85;;
7471;SDS011;3777;48.722;8.110;2023-07-20T13:42:02;2.20;;;1.73;;
7471;SDS011;3777;48.722;8.110;2023-07-20T13:44:30;2.35;;;1.77;;
7471;SDS011;3777;48.722;8.110;2023-07-20T13:46:57;2.95;;;1.85;;
7471;SDS011;3777;48.722;8.110;2023-07-20T13:49:24;3.35;;;1.80;;
7471;SDS011;3777;48.722;8.110;2023-07-20T13:51:52;3.40;;;1.70;;
7471;SDS011;3777;48.722;8.110;2023-07-20T13:54:18;2.50;;;1.70;;
7471;SDS011;3777;48.722;8.110;2023-07-20T13:56:47;3.00;;;1.80;;
7471;SDS011;3777;48.722;8.110;2023-07-20T13:59:14;2.85;;;2.00;;
7471;SDS011;3777;48.722;8.110;2023-07-20T14:01:42;2.55;;;1.83;;
7471;SDS011;3777;48.722;8.110;2023-07-20T14:04:10;3.63;;;1.73;;
7471;SDS011;3777;48.722;8.110;2023-07-20T14:06:37;2.08;;;1.67;;
7471;SDS011;3777;48.722;8.110;2023-07-20T14:09:04;2.38;;;1.90;;
7471;SDS011;3777;48.722;8.110;2023-07-20T14:11:31;2.25;;;1.75;;
7471;SDS011;3777;48.722;8.110;2023-07-20T14:14:02;2.10;;;1.80;;
7471;SDS011;3777;48.722;8.110;2023-07-20T14:16:29;3.80;;;1.60;;
7471;SDS011;3777;48.722;8.110;2023-07-20T14:18:57;1.92;;;1.60;;
7471;SDS011;3777;48.722;8.110;2023-07-20T14:21:24;3.13;;;1.90;;
7471;SDS011;3777;48.722;8.110;2023-07-20T14:23:51;1.95;;;1.75;;
7471;SDS011;3777;48.722;8.110;2023-07-20T14:26:19;3.25;;;1.90;;
7471;SDS011;3777;48.722;8.110;2023-07-20T14:28:46;2.63;;;1.60;;
7471;SDS011;3777;48.722;8.110;2023-07-20T14:31:14;1.92;;;1.70;;
7471;SDS011;3777;48.722;8.110;2023-07-20T14:33:41;3.53;;;1.80;;
7471;SDS011;3777;48.722;8.110;2023-07-20T14:36:08;2.38;;;1.88;;
7471;SDS011;3777;48.722;8.110;2023-07-20T14:38:35;2.63;;;1.60;;
7471;SDS011;3777;48.722;8.110;2023-07-20T14:41:02;3.08;;;1.80;;
7471;SDS011;3777;48.722;8.110;2023-07-20T14:43:31;3.05;;;1.75;;
7471;SDS011;3777;48.722;8.110;2023-07-20T14:45:59;2.45;;;1.70;;
7471;SDS011;3777;48.722;8.110;2023-07-20T14:48:27;2.75;;;1.80;;
7471;SDS011;3777;48.722;8.110;2023-07-20T14:50:54;1.70;;;1.60;;
7471;SDS011;3777;48.722;8.110;2023-07-20T14:53:21;1.65;;;1.55;;
7471;SDS011;3777;48.722;8.110;2023-07-20T14:55:48;1.90;;;1.70;;
7471;SDS011;3777;48.722;8.110;2023-07-20T14:58:15;2.33;;;1.60;;
7471;SDS011;3777;48.722;8.110;2023-07-20T15:00:42;2.53;;;1.70;;
7471;SDS011;3777;48.722;8.110;2023-07-20T15:03:10;2.00;;;1.73;;
7471;SDS011;3777;48.722;8.110;2023-07-20T15:05:38;2.50;;;1.73;;
7471;SDS011;3777;48.722;8.110;2023-07-20T15:08:05;3.25;;;1.70;;
7471;SDS011;3777;48.722;8.110;2023-07-20T15:10:33;1.80;;;1.50;;
7471;SDS011;3777;48.722;8.110;2023-07-20T15:13:00;3.22;;;1.50;;
7471;SDS011;3777;48.722;8.110;2023-07-20T15:15:28;2.17;;;1.75;;
7471;SDS011;3777;48.722;8.110;2023-07-20T15:17:55;2.08;;;1.40;;
7471;SDS011;3777;48.722;8.110;2023-07-20T15:20:22;2.85;;;1.60;;
7471;SDS011;3777;48.722;8.110;2023-07-20T15:22:50;2.13;;;1.63;;